sensor_id;sensor_type;location;lat;lon;timestamp;P1;durP1;ratioP1;P2;durP2;ratioP2
60430;SDS011;46285;45.122;20.726;2023-08-07T00:07:27;6.63;;;2.45;;
60430;SDS011;46285;45.122;20.726;2023-08-07T00:17:28;3.78;;;1.38;;
60430;SDS011;46285;45.122;20.726;2023-08-07T00:27:29;4.20;;;1.60;;
60430;SDS011;46285;45.122;20.726;2023-08-07T00:37:31;4.35;;;1.40;;
60430;SDS011;46285;45.122;20.726;2023-08-07T00:47:32;4.93;;;1.90;;
60430;SDS011;46285;45.122;20.726;2023-08-07T00:57:33;5.55;;;2.15;;
60430;SDS011;46285;45.122;20.726;2023-08-07T01:07:34;5.13;;;1.88;;
60430;SDS011;46285;45.122;20.726;2023-08-07T01:17:35;6.05;;;2.60;;
60430;SDS011;46285;45.122;20.726;2023-08-07T01:27:50;5.00;;;2.20;;
60430;SDS011;46285;45.122;20.726;2023-08-07T01:37:54;6.03;;;2.55;;
60430;SDS011;46285;45.122;20.726;2023-08-07T01:47:56;5.90;;;2.53;;
60430;SDS011;46285;45.122;20.726;2023-08-07T01:57:57;6.18;;;3.00;;
60430;SDS011;46285;45.122;20.726;2023-08-07T02:07:59;6.50;;;3.22;;
60430;SDS011;46285;45.122;20.726;2023-08-07T02:18:00;7.13;;;3.17;;
60430;SDS011;46285;45.122;20.726;2023-08-07T02:28:01;5.82;;;2.63;;
60430;SDS011;46285;45.122;20.726;2023-08-07T02:38:02;6.50;;;3.53;;
60430;SDS011;46285;45.122;20.726;2023-08-07T02:48:04;6.15;;;3.22;;
60430;SDS011;46285;45.122;20.726;2023-08-07T02:58:05;6.13;;;3.40;;
60430;SDS011;46285;45.122;20.726;2023-08-07T03:08:06;8.23;;;3.97;;
60430;SDS011;46285;45.122;20.726;2023-08-07T03:18:07;7.95;;;4.50;;
60430;SDS011;46285;45.122;20.726;2023-08-07T03:28:08;8.82;;;4.45;;
60430;SDS011;46285;45.122;20.726;2023-08-07T03:38:10;8.48;;;4.43;;
60430;SDS011;46285;45.122;20.726;2023-08-07T03:48:11;12.05;;;4.75;;
60430;SDS011;46285;45.122;20.726;2023-08-07T03:58:12;16.58;;;6.22;;
60430;SDS011;46285;45.122;20.726;2023-08-07T04:08:14;9.88;;;5.28;;
60430;SDS011;46285;45.122;20.726;2023-08-07T04:18:15;12.52;;;6.13;;
60430;SDS011;46285;45.122;20.726;2023-08-07T04:28:17;17.55;;;7.20;;
60430;SDS011;46285;45.122;20.726;2023-08-07T04:38:19;11.00;;;7.45;;
60430;SDS011;46285;45.122;20.726;2023-08-07T04:48:20;10.23;;;6.03;;
60430;SDS011;46285;45.122;20.726;2023-08-07T04:58:21;9.80;;;4.78;;
60430;SDS011;46285;45.122;20.726;2023-08-07T05:08:22;9.68;;;5.13;;
60430;SDS011;46285;45.122;20.726;2023-08-07T05:18:24;9.52;;;5.25;;
60430;SDS011;46285;45.122;20.726;2023-08-07T05:28:25;9.57;;;4.63;;
60430;SDS011;46285;45.122;20.726;2023-08-07T05:38:26;9.80;;;4.35;;
60430;SDS011;46285;45.122;20.726;2023-08-07T05:48:27;7.05;;;3.25;;
60430;SDS011;46285;45.122;20.726;2023-08-07T05:58:28;7.00;;;3.65;;
60430;SDS011;46285;45.122;20.726;2023-08-07T06:08:29;4.95;;;2.40;;
60430;SDS011;46285;45.122;20.726;2023-08-07T06:18:30;5.35;;;2.30;;
60430;SDS011;46285;45.122;20.726;2023-08-07T06:28:32;11.85;;;2.72;;
60430;SDS011;46285;45.122;20.726;2023-08-07T06:38:33;5.45;;;2.33;;
60430;SDS011;46285;45.122;20.726;2023-08-07T06:48:34;5.95;;;2.25;;
60430;SDS011;46285;45.122;20.726;2023-08-07T06:58:35;6.85;;;1.90;;
60430;SDS011;46285;45.122;20.726;2023-08-07T07:08:36;5.25;;;2.15;;
60430;SDS011;46285;45.122;20.726;2023-08-07T07:18:37;6.07;;;2.33;;
60430;SDS011;46285;45.122;20.726;2023-08-07T07:28:38;7.22;;;2.08;;
60430;SDS011;46285;45.122;20.726;2023-08-07T07:38:40;6.63;;;2.55;;
60430;SDS011;46285;45.122;20.726;2023-08-07T07:48:41;5.05;;;2.05;;
60430;SDS011;46285;45.122;20.726;2023-08-07T07:58:42;3.45;;;1.13;;
60430;SDS011;46285;45.122;20.726;2023-08-07T08:08:43;5.60;;;1.27;;
60430;SDS011;46285;45.122;20.726;2023-08-07T08:18:44;3.38;;;1.00;;
60430;SDS011;46285;45.122;20.726;2023-08-07T08:28:45;3.10;;;0.80;;
60430;SDS011;46285;45.122;20.726;2023-08-07T08:38:46;6.18;;;0.98;;
60430;SDS011;46285;45.122;20.726;2023-08-07T08:48:49;2.17;;;0.75;;
60430;SDS011;46285;45.122;20.726;2023-08-07T08:58:51;11.27;;;1.05;;
60430;SDS011;46285;45.122;20.726;2023-08-07T09:08:52;2.63;;;1.00;;
60430;SDS011;46285;45.122;20.726;2023-08-07T09:18:53;4.28;;;1.20;;
60430;SDS011;46285;45.122;20.726;2023-08-07T09:28:55;3.05;;;1.10;;
60430;SDS011;46285;45.122;20.726;2023-08-07T09:38:56;4.28;;;0.98;;
60430;SDS011;46285;45.122;20.726;2023-08-07T09:48:57;4.97;;;0.90;;
60430;SDS011;46285;45.122;20.726;2023-08-07T09:58:59;6.10;;;1.10;;
60430;SDS011;46285;45.122;20.726;2023-08-07T10:09:00;4.07;;;1.40;;
60430;SDS011;46285;45.122;20.726;2023-08-07T10:19:01;3.00;;;0.90;;
60430;SDS011;46285;45.122;20.726;2023-08-07T10:29:04;4.68;;;0.90;;
60430;SDS011;46285;45.122;20.726;2023-08-07T10:39:10;3.72;;;1.00;;
60430;SDS011;46285;45.122;20.726;2023-08-07T10:49:11;5.07;;;1.52;;
60430;SDS011;46285;45.122;20.726;2023-08-07T10:59:30;2.42;;;0.80;;
60430;SDS011;46285;45.122;20.726;2023-08-07T11:09:33;3.92;;;1.33;;
60430;SDS011;46285;45.122;20.726;2023-08-07T11:19:34;2.63;;;0.82;;
60430;SDS011;46285;45.122;20.726;2023-08-07T11:29:36;2.50;;;0.60;;
60430;SDS011;46285;45.122;20.726;2023-08-07T11:39:43;2.80;;;0.85;;
60430;SDS011;46285;45.122;20.726;2023-08-07T11:49:45;1.95;;;0.70;;
60430;SDS011;46285;45.122;20.726;2023-08-07T11:59:49;3.30;;;1.13;;
60430;SDS011;46285;45.122;20.726;2023-08-07T12:09:50;2.80;;;1.08;;
60430;SDS011;46285;45.122;20.726;2023-08-07T12:19:52;5.13;;;1.70;;
60430;SDS011;46285;45.122;20.726;2023-08-07T12:29:53;1.75;;;0.68;;
60430;SDS011;46285;45.122;20.726;2023-08-07T12:39:54;3.22;;;1.05;;
60430;SDS011;46285;45.122;20.726;2023-08-07T12:49:55;2.80;;;1.00;;
60430;SDS011;46285;45.122;20.726;2023-08-07T12:59:56;3.72;;;1.30;;
60430;SDS011;46285;45.122;20.726;2023-08-07T13:09:58;3.63;;;1.27;;
60430;SDS011;46285;45.122;20.726;2023-08-07T13:19:59;5.22;;;1.33;;
60430;SDS011;46285;45.122;20.726;2023-08-07T13:30:01;3.27;;;1.00;;
60430;SDS011;46285;45.122;20.726;2023-08-07T13:40:02;2.75;;;1.23;;
60430;SDS011;46285;45.122;20.726;2023-08-07T13:50:03;5.47;;;1.13;;
60430;SDS011;46285;45.122;20.726;2023-08-07T14:00:05;3.28;;;1.17;;
60430;SDS011;46285;45.122;20.726;2023-08-07T14:10:06;3.65;;;1.20;;
60430;SDS011;46285;45.122;20.726;2023-08-07T14:20:08;4.22;;;1.20;;
60430;SDS011;46285;45.122;20.726;2023-08-07T14:30:09;3.83;;;1.10;;
60430;SDS011;46285;45.122;20.726;2023-08-07T14:40:10;3.75;;;1.15;;
60430;SDS011;46285;45.122;20.726;2023-08-07T14:50:11;6.95;;;1.80;;
60430;SDS011;46285;45.122;20.726;2023-08-07T15:00:13;3.13;;;1.00;;
60430;SDS011;46285;45.122;20.726;2023-08-07T15:10:14;5.07;;;1.10;;
60430;SDS011;46285;45.122;20.726;2023-08-07T15:20:15;4.72;;;1.10;;
60430;SDS011;46285;45.122;20.726;2023-08-07T15:30:16;3.97;;;1.00;;
60430;SDS011;46285;45.122;20.726;2023-08-07T15:40:17;3.97;;;0.90;;
60430;SDS011;46285;45.122;20.726;2023-08-07T15:50:19;6.00;;;1.27;;
60430;SDS011;46285;45.122;20.726;2023-08-07T16:00:20;2.85;;;0.85;;
60430;SDS011;46285;45.122;20.726;2023-08-07T16:10:21;2.67;;;0.68;;
60430;SDS011;46285;45.122;20.726;2023-08-07T16:20:22;4.20;;;0.50;;
60430;SDS011;46285;45.122;20.726;2023-08-07T16:30:23;1.95;;;0.43;;
60430;SDS011;46285;45.122;20.726;2023-08-07T16:40:25;4.13;;;0.52;;
60430;SDS011;46285;45.122;20.726;2023-08-07T16:50:26;3.08;;;0.55;;
60430;SDS011;46285;45.122;20.726;2023-08-07T17:00:27;1.95;;;0.35;;
60430;SDS011;46285;45.122;20.726;2023-08-07T17:10:29;2.20;;;0.40;;
60430;SDS011;46285;45.122;20.726;2023-08-07T17:20:31;1.48;;;0.40;;
60430;SDS011;46285;45.122;20.726;2023-08-07T17:30:32;3.40;;;0.40;;
60430;SDS011;46285;45.122;20.726;2023-08-07T17:40:33;1.27;;;0.40;;
60430;SDS011;46285;45.122;20.726;2023-08-07T17:50:34;3.70;;;0.40;;
60430;SDS011;46285;45.122;20.726;2023-08-07T18:00:35;1.52;;;0.40;;
60430;SDS011;46285;45.122;20.726;2023-08-07T18:10:38;1.77;;;0.40;;
60430;SDS011;46285;45.122;20.726;2023-08-07T18:20:39;1.75;;;0.40;;
60430;SDS011;46285;45.122;20.726;2023-08-07T18:30:41;1.77;;;0.60;;
60430;SDS011;46285;45.122;20.726;2023-08-07T18:40:42;2.83;;;0.60;;
60430;SDS011;46285;45.122;20.726;2023-08-07T18:50:43;0.70;;;0.30;;
60430;SDS011;46285;45.122;20.726;2023-08-07T19:00:44;0.88;;;0.32;;
60430;SDS011;46285;45.122;20.726;2023-08-07T19:10:45;2.00;;;0.40;;
60430;SDS011;46285;45.122;20.726;2023-08-07T19:20:46;1.92;;;0.50;;
60430;SDS011;46285;45.122;20.726;2023-08-07T19:30:47;0.55;;;0.28;;
60430;SDS011;46285;45.122;20.726;2023-08-07T19:40:48;2.30;;;0.60;;
60430;SDS011;46285;45.122;20.726;2023-08-07T19:50:54;1.88;;;0.55;;
60430;SDS011;46285;45.122;20.726;2023-08-07T20:00:55;2.00;;;0.70;;
60430;SDS011;46285;45.122;20.726;2023-08-07T20:10:56;3.83;;;0.52;;
60430;SDS011;46285;45.122;20.726;2023-08-07T20:20:57;4.65;;;0.57;;
60430;SDS011;46285;45.122;20.726;2023-08-07T20:30:58;4.53;;;0.65;;
60430;SDS011;46285;45.122;20.726;2023-08-07T20:40:59;2.17;;;0.60;;
60430;SDS011;46285;45.122;20.726;2023-08-07T20:51:01;2.60;;;0.60;;
60430;SDS011;46285;45.122;20.726;2023-08-07T21:01:02;0.85;;;0.30;;
60430;SDS011;46285;45.122;20.726;2023-08-07T21:11:03;1.10;;;0.68;;
60430;SDS011;46285;45.122;20.726;2023-08-07T21:21:05;3.00;;;1.20;;
60430;SDS011;46285;45.122;20.726;2023-08-07T21:31:06;2.15;;;0.63;;
60430;SDS011;46285;45.122;20.726;2023-08-07T21:41:07;0.82;;;0.40;;
60430;SDS011;46285;45.122;20.726;2023-08-07T21:51:08;1.52;;;0.57;;
60430;SDS011;46285;45.122;20.726;2023-08-07T22:01:09;3.53;;;0.60;;
60430;SDS011;46285;45.122;20.726;2023-08-07T22:11:10;3.03;;;0.40;;
60430;SDS011;46285;45.122;20.726;2023-08-07T22:21:11;1.05;;;0.50;;
60430;SDS011;46285;45.122;20.726;2023-08-07T22:31:13;1.67;;;0.50;;
60430;SDS011;46285;45.122;20.726;2023-08-07T22:41:14;3.20;;;0.50;;
60430;SDS011;46285;45.122;20.726;2023-08-07T22:51:15;1.05;;;0.45;;
60430;SDS011;46285;45.122;20.726;2023-08-07T23:01:16;2.08;;;0.50;;
60430;SDS011;46285;45.122;20.726;2023-08-07T23:11:17;2.08;;;0.80;;
60430;SDS011;46285;45.122;20.726;2023-08-07T23:21:18;2.13;;;0.63;;
60430;SDS011;46285;45.122;20.726;2023-08-07T23:31:19;1.23;;;0.40;;
60430;SDS011;46285;45.122;20.726;2023-08-07T23:41:20;3.03;;;0.57;;
60430;SDS011;46285;45.122;20.726;2023-08-07T23:51:22;3.47;;;0.68;;
